Time;durP1;ratioP1;P1;durP2;ratioP2;P2;SDS_P1;SDS_P2;PMS_P1;PMS_P2;Temp;Humidity;BMP_temperature;BMP_pressure;BME280_temperature;BME280_humidity;BME280_pressure;Samples;Min_cycle;Max_cycle;Signal;HPM_P1;HPM_P2
2022/06/18 00:01:33;;;;;;;;;17.00;16.25;;;;;-142.59;100.00;56100.38;5074621;28;49659;-69
2022/06/18 00:04:11;;;;;;;;;23.75;21.25;;;;;-142.59;100.00;56100.38;5074661;28;49696;-70
2022/06/18 00:06:50;;;;;;;;;23.25;21.75;;;;;-142.59;100.00;56100.38;5074793;27;49501;-69
2022/06/18 00:09:16;;;;;;;;;17.25;16.25;;;;;-142.59;100.00;56100.38;5074342;27;49727;-69
2022/06/18 00:14:26;;;;;;;;;23.25;21.75;;;;;-142.59;100.00;56100.38;5074462;27;49774;-70
2022/06/18 00:16:51;;;;;;;;;22.00;21.00;;;;;-142.59;100.00;56100.38;5074576;28;49827;-70
2022/06/18 00:19:17;;;;;;;;;21.25;21.25;;;;;-142.59;100.00;56100.38;5074063;28;56631;-70
2022/06/18 00:21:42;;;;;;;;;18.00;18.00;;;;;-142.59;100.00;56100.38;5074642;27;49658;-70
2022/06/18 00:24:17;;;;;;;;;14.25;14.25;;;;;-142.59;100.00;56100.38;5074274;27;49558;-70
2022/06/18 00:26:43;;;;;;;;;23.50;18.75;;;;;-142.59;100.00;56100.38;5074582;28;49871;-69
2022/06/18 00:29:12;;;;;;;;;17.50;17.50;;;;;-142.59;100.00;56100.38;5074300;28;50957;-69
2022/06/18 00:31:39;;;;;;;;;17.00;16.00;;;;;-142.59;100.00;56100.38;5074199;27;49794;-70
2022/06/18 00:34:04;;;;;;;;;20.25;19.00;;;;;-142.59;100.00;56100.38;5074367;28;49807;-69
2022/06/18 00:36:29;;;;;;;;;20.25;20.25;;;;;-142.59;100.00;56100.38;5074492;27;49887;-70
2022/06/18 00:38:55;;;;;;;;;17.75;17.75;;;;;-142.59;100.00;56100.38;5092101;27;50290;-69
2022/06/18 00:41:23;;;;;;;;;17.00;16.75;;;;;-142.59;100.00;56100.38;5075630;27;49878;-69
2022/06/18 00:44:00;;;;;;;;;15.75;15.75;;;;;-142.59;100.00;56100.38;5074359;28;49722;-70
2022/06/18 00:46:31;;;;;;;;;21.00;18.50;;;;;-142.59;100.00;56100.38;5074144;27;49521;-69
2022/06/18 00:49:08;;;;;;;;;17.25;17.25;;;;;-142.59;100.00;56100.38;5075009;27;50570;-70
2022/06/18 00:52:01;;;;;;;;;20.75;19.25;;;;;-142.59;100.00;56100.38;5073627;27;49863;-69
2022/06/18 00:54:38;;;;;;;;;15.75;14.50;;;;;-142.59;100.00;56100.38;5077142;27;49577;-69
2022/06/18 00:57:16;;;;;;;;;15.75;15.75;;;;;-142.59;100.00;56100.38;5076353;27;49815;-69
2022/06/18 00:59:50;;;;;;;;;14.75;14.75;;;;;-142.59;100.00;56100.38;5073695;27;50566;-70
2022/06/18 01:02:24;;;;;;;;;16.25;16.25;;;;;-142.59;100.00;56100.38;5063888;27;49787;-71
2022/06/18 01:04:50;;;;;;;;;15.25;13.00;;;;;-142.59;100.00;56100.38;5091546;27;49850;-70
2022/06/18 01:07:36;;;;;;;;;19.75;18.00;;;;;-142.59;100.00;56100.38;5074129;28;49719;-69
2022/06/18 01:10:06;;;;;;;;;17.25;16.00;;;;;-142.59;100.00;56100.38;5072731;27;49636;-70
2022/06/18 01:12:31;;;;;;;;;15.00;14.75;;;;;-142.59;100.00;56100.38;5088977;27;49754;-69
2022/06/18 01:15:03;;;;;;;;;16.50;16.50;;;;;-142.59;100.00;56100.38;5075647;27;49828;-69
2022/06/18 01:17:30;;;;;;;;;15.50;15.25;;;;;-142.59;100.00;56100.38;5092595;27;49647;-70
2022/06/18 01:19:55;;;;;;;;;17.25;17.25;;;;;-142.59;100.00;56100.38;5093688;27;50721;-69
2022/06/18 01:22:57;;;;;;;;;15.75;15.75;;;;;-142.59;100.00;56100.38;5084820;27;49575;-69
2022/06/18 01:25:26;;;;;;;;;20.50;20.50;;;;;-142.59;100.00;56100.38;5073742;28;49997;-68
2022/06/18 01:27:53;;;;;;;;;21.50;18.75;;;;;-142.59;100.00;56100.38;5080571;27;50036;-69
2022/06/18 01:30:21;;;;;;;;;22.25;21.50;;;;;-142.59;100.00;56100.38;5093366;27;49708;-69
2022/06/18 01:32:50;;;;;;;;;19.50;19.50;;;;;-142.59;100.00;56100.38;5077666;27;49783;-67
2022/06/18 01:35:17;;;;;;;;;20.00;19.00;;;;;-142.59;100.00;56100.38;5081175;27;49923;-68
2022/06/18 01:37:42;;;;;;;;;18.25;17.00;;;;;-142.59;100.00;56100.38;5093433;27;49775;-68
2022/06/18 01:40:15;;;;;;;;;23.25;22.75;;;;;-142.59;100.00;56100.38;5093192;27;50356;-67
2022/06/18 01:42:45;;;;;;;;;23.00;19.75;;;;;-142.59;100.00;56100.38;5078646;27;49944;-68
2022/06/18 01:45:18;;;;;;;;;22.25;22.25;;;;;-142.59;100.00;56100.38;5074649;27;49860;-68
2022/06/18 01:47:53;;;;;;;;;25.00;21.75;;;;;-142.59;100.00;56100.38;5093444;27;50197;-69
2022/06/18 01:50:38;;;;;;;;;29.00;21.25;;;;;-142.59;100.00;56100.38;5075159;27;50091;-73
2022/06/18 01:53:06;;;;;;;;;25.25;21.75;;;;;-142.59;100.00;56100.38;5065044;28;49768;-68
2022/06/18 01:55:38;;;;;;;;;25.50;22.25;;;;;-142.59;100.00;56100.38;5074034;27;49666;-69
2022/06/18 01:58:11;;;;;;;;;22.50;21.75;;;;;-142.59;100.00;56100.38;5093411;27;49537;-68
2022/06/18 02:00:36;;;;;;;;;24.00;24.00;;;;;-142.59;100.00;56100.38;5081106;27;50510;-69
2022/06/18 02:03:03;;;;;;;;;27.50;27.50;;;;;-142.59;100.00;56100.38;5072947;27;49794;-71
2022/06/18 02:05:29;;;;;;;;;24.75;21.75;;;;;-142.59;100.00;56100.38;5074172;27;49626;-68
2022/06/18 02:07:55;;;;;;;;;28.50;25.75;;;;;-142.59;100.00;56100.38;5090565;27;49554;-68
2022/06/18 02:10:32;;;;;;;;;24.50;23.25;;;;;-142.59;100.00;56100.38;5079018;27;49756;-74
2022/06/18 02:13:02;;;;;;;;;22.25;22.25;;;;;-142.59;100.00;56100.38;5059429;27;49702;-70
2022/06/18 02:15:35;;;;;;;;;24.75;21.00;;;;;-142.59;100.00;56100.38;5072815;27;49751;-68
2022/06/18 02:18:06;;;;;;;;;24.75;22.75;;;;;-142.59;100.00;56100.38;5076673;27;49837;-68
2022/06/18 02:20:47;;;;;;;;;22.00;22.00;;;;;-142.59;100.00;56100.38;5083490;27;49994;-69
2022/06/18 02:23:13;;;;;;;;;21.25;21.00;;;;;-142.59;100.00;56100.38;5077001;27;49753;-71
2022/06/18 02:25:38;;;;;;;;;20.25;19.75;;;;;-142.59;100.00;56100.38;5096999;27;49770;-68
2022/06/18 02:28:23;;;;;;;;;23.25;20.00;;;;;-142.59;100.00;56100.38;5083281;27;49928;-70
2022/06/18 02:30:51;;;;;;;;;28.00;24.00;;;;;-142.59;100.00;56100.38;5076043;27;50063;-68
2022/06/18 02:33:31;;;;;;;;;30.50;26.75;;;;;-142.59;100.00;56100.38;5076008;27;50003;-68
2022/06/18 02:36:10;;;;;;;;;24.50;21.25;;;;;-142.59;100.00;56100.38;5088070;27;49814;-68
2022/06/18 02:38:36;;;;;;;;;27.00;25.00;;;;;-142.59;100.00;56100.38;5084307;27;49768;-69
2022/06/18 02:41:01;;;;;;;;;31.25;27.00;;;;;-142.59;100.00;56100.38;5075921;27;50939;-70
2022/06/18 02:43:26;;;;;;;;;24.25;23.75;;;;;-142.59;100.00;56100.38;5094193;27;49789;-68
2022/06/18 02:45:55;;;;;;;;;28.75;25.75;;;;;-142.59;100.00;56100.38;5096721;27;50438;-71
2022/06/18 02:48:28;;;;;;;;;30.00;28.25;;;;;-142.59;100.00;56100.38;5082875;27;49841;-70
2022/06/18 02:50:57;;;;;;;;;25.00;25.00;;;;;-142.59;100.00;56100.38;5093406;27;50860;-68
2022/06/18 02:53:23;;;;;;;;;26.00;24.50;;;;;-142.59;100.00;56100.38;5077435;27;49675;-69
2022/06/18 02:55:53;;;;;;;;;32.00;29.50;;;;;-142.59;100.00;56100.38;5095962;27;49746;-70
2022/06/18 02:58:23;;;;;;;;;26.25;23.50;;;;;-142.59;100.00;56100.38;5078418;27;49644;-69
2022/06/18 03:00:53;;;;;;;;;25.25;24.25;;;;;-142.59;100.00;56100.38;5080290;27;50988;-68
2022/06/18 03:03:20;;;;;;;;;31.50;25.75;;;;;-142.59;100.00;56100.38;5068375;28;49610;-68
2022/06/18 03:05:46;;;;;;;;;24.00;23.25;;;;;-142.59;100.00;56100.38;5084245;27;51331;-68
2022/06/18 03:08:12;;;;;;;;;28.00;27.00;;;;;-142.59;100.00;56100.38;5079291;27;50001;-69
2022/06/18 03:13:21;;;;;;;;;28.50;25.75;;;;;-142.59;100.00;56100.38;5095581;27;49670;-68
2022/06/18 03:15:50;;;;;;;;;25.50;23.75;;;;;-142.59;100.00;56100.38;5077200;27;49645;-69
2022/06/18 03:18:18;;;;;;;;;24.75;23.75;;;;;-142.59;100.00;56100.38;5094365;27;50000;-69
2022/06/18 03:20:55;;;;;;;;;27.25;25.50;;;;;-142.59;100.00;56100.38;5081987;27;49766;-70
2022/06/18 03:23:23;;;;;;;;;29.00;27.50;;;;;-142.59;100.00;56100.38;5090269;27;49792;-69
2022/06/18 03:25:49;;;;;;;;;25.00;24.75;;;;;-142.59;100.00;56100.38;5075760;28;49708;-70
2022/06/18 03:28:15;;;;;;;;;24.00;23.00;;;;;-142.59;100.00;56100.38;5082940;27;49803;-69
2022/06/18 03:30:43;;;;;;;;;31.00;26.75;;;;;-142.59;100.00;56100.38;5094992;27;50598;-75
2022/06/18 03:33:10;;;;;;;;;26.75;24.25;;;;;-142.59;100.00;56100.38;5094354;27;49705;-69
2022/06/18 03:35:37;;;;;;;;;24.75;23.75;;;;;-142.59;100.00;56100.38;5095215;27;49752;-69
2022/06/18 03:38:03;;;;;;;;;25.75;25.50;;;;;-142.59;100.00;56100.38;5095314;27;49961;-69
2022/06/18 03:40:29;;;;;;;;;23.75;23.75;;;;;-142.59;100.00;56100.38;5063087;28;50434;-68
2022/06/18 03:42:54;;;;;;;;;22.75;22.25;;;;;-142.59;100.00;56100.38;5068748;27;49708;-69
2022/06/18 03:45:19;;;;;;;;;27.75;25.50;;;;;-142.59;100.00;56100.38;5075165;27;49680;-69
2022/06/18 03:47:47;;;;;;;;;23.25;21.25;;;;;-142.59;100.00;56100.38;5073606;28;49740;-69
2022/06/18 03:50:18;;;;;;;;;21.75;20.75;;;;;-142.59;100.00;56100.38;5056656;27;49923;-69
2022/06/18 03:52:44;;;;;;;;;22.25;20.50;;;;;-142.59;100.00;56100.38;5074268;28;49636;-68
2022/06/18 03:55:12;;;;;;;;;22.25;19.75;;;;;-142.59;100.00;56100.38;5074898;27;49566;-69
2022/06/18 03:57:37;;;;;;;;;22.00;22.00;;;;;-142.59;100.00;56100.38;5057861;27;49930;-68
2022/06/18 04:00:05;;;;;;;;;24.00;22.00;;;;;-142.59;100.00;56100.38;5074519;28;49764;-69
2022/06/18 04:02:30;;;;;;;;;17.25;17.25;;;;;-142.59;100.00;56100.38;5074649;27;49845;-68
2022/06/18 04:04:56;;;;;;;;;21.25;21.25;;;;;-142.59;100.00;56100.38;5078237;27;49900;-68
2022/06/18 04:07:23;;;;;;;;;19.50;19.50;;;;;-142.59;100.00;56100.38;5095369;27;49849;-70
2022/06/18 04:09:50;;;;;;;;;22.25;20.25;;;;;-142.59;100.00;56100.38;5074433;27;50475;-69
2022/06/18 04:12:17;;;;;;;;;25.25;22.00;;;;;-142.59;100.00;56100.38;5074223;27;49784;-70
2022/06/18 04:14:43;;;;;;;;;19.50;18.25;;;;;-142.59;100.00;56100.38;5075052;27;49803;-76
2022/06/18 04:17:13;;;;;;;;;19.50;17.00;;;;;-142.59;100.00;56100.38;5074951;27;49754;-78
2022/06/18 04:19:39;;;;;;;;;20.25;20.25;;;;;-142.59;100.00;56100.38;5093190;27;50702;-68
2022/06/18 04:22:04;;;;;;;;;17.75;16.00;;;;;-142.59;100.00;56100.38;5095011;27;49644;-71
2022/06/18 04:24:29;;;;;;;;;17.75;16.75;;;;;-142.59;100.00;56100.38;5077056;27;49918;-68
2022/06/18 04:26:55;;;;;;;;;21.75;20.25;;;;;-142.59;100.00;56100.38;5095305;27;49833;-70
2022/06/18 04:29:21;;;;;;;;;16.75;16.00;;;;;-142.59;100.00;56100.38;5094775;27;50090;-71
2022/06/18 04:31:47;;;;;;;;;18.50;18.50;;;;;-142.59;100.00;56100.38;5094325;27;49716;-75
2022/06/18 04:34:13;;;;;;;;;25.00;19.25;;;;;-142.59;100.00;56100.38;5079766;27;49850;-76
2022/06/18 04:36:41;;;;;;;;;19.25;18.25;;;;;-142.59;100.00;56100.38;5074427;27;49815;-74
2022/06/18 04:39:07;;;;;;;;;17.75;16.50;;;;;-142.59;100.00;56100.38;5058848;27;51419;-73
2022/06/18 04:41:33;;;;;;;;;17.00;15.50;;;;;-142.59;100.00;56100.38;5094668;27;49871;-74
2022/06/18 04:43:58;;;;;;;;;17.75;16.00;;;;;-142.59;100.00;56100.38;5084250;27;49667;-82
2022/06/18 04:46:24;;;;;;;;;18.25;15.00;;;;;-142.59;100.00;56100.38;5074306;28;49897;-78
2022/06/18 04:48:49;;;;;;;;;19.50;17.25;;;;;-142.59;100.00;56100.38;5073957;28;50849;-80
2022/06/18 04:51:17;;;;;;;;;20.75;18.75;;;;;-142.59;100.00;56100.38;5074022;27;50027;-79
2022/06/18 04:53:43;;;;;;;;;18.75;18.75;;;;;-142.59;100.00;56100.38;5075042;27;49873;-81
2022/06/18 04:56:09;;;;;;;;;19.25;19.25;;;;;-142.59;100.00;56100.38;5094123;27;50019;-74
2022/06/18 04:58:35;;;;;;;;;17.50;16.00;;;;;-142.59;100.00;56100.38;5075478;27;50683;-74
2022/06/18 05:01:01;;;;;;;;;16.50;15.75;;;;;-142.59;100.00;56100.38;5094414;27;49822;-75
2022/06/18 05:03:27;;;;;;;;;20.00;20.00;;;;;-142.59;100.00;56100.38;5089556;27;49656;-76
2022/06/18 05:05:52;;;;;;;;;17.50;17.25;;;;;-142.59;100.00;56100.38;5065769;27;49940;-77
2022/06/18 05:08:18;;;;;;;;;18.25;17.25;;;;;-142.59;100.00;56100.38;5093707;27;50453;-70
2022/06/18 05:10:44;;;;;;;;;18.50;17.00;;;;;-142.59;100.00;56100.38;5081771;27;49802;-71
2022/06/18 05:13:10;;;;;;;;;17.50;17.50;;;;;-142.59;100.00;56100.38;5079126;27;49727;-71
2022/06/18 05:15:36;;;;;;;;;18.75;18.75;;;;;-142.59;100.00;56100.38;5080058;27;49846;-69
2022/06/18 05:18:02;;;;;;;;;17.00;17.00;;;;;-142.59;100.00;56100.38;5074591;27;50017;-68
2022/06/18 05:20:28;;;;;;;;;18.25;17.25;;;;;-142.59;100.00;56100.38;5076117;27;49807;-73
2022/06/18 05:22:53;;;;;;;;;19.75;18.75;;;;;-142.59;100.00;56100.38;5091343;27;49970;-72
2022/06/18 05:25:19;;;;;;;;;17.50;15.25;;;;;-142.59;100.00;56100.38;5071584;27;50011;-70
2022/06/18 05:27:45;;;;;;;;;21.00;18.25;;;;;-142.59;100.00;56100.38;5085622;27;49804;-72
2022/06/18 05:30:15;;;;;;;;;19.50;18.75;;;;;-142.59;100.00;56100.38;5091478;27;49652;-69
2022/06/18 05:32:41;;;;;;;;;17.75;17.75;;;;;-142.59;100.00;56100.38;5092458;27;49920;-69
2022/06/18 05:35:07;;;;;;;;;20.00;18.50;;;;;-142.59;100.00;56100.38;5075059;27;49978;-70
2022/06/18 05:37:33;;;;;;;;;18.50;18.50;;;;;-142.59;100.00;56100.38;5072758;27;50340;-71
2022/06/18 05:39:58;;;;;;;;;18.25;18.25;;;;;-142.59;100.00;56100.38;5075013;27;49869;-69
2022/06/18 05:42:24;;;;;;;;;20.25;19.75;;;;;-142.59;100.00;56100.38;5076400;27;49740;-70
2022/06/18 05:44:50;;;;;;;;;21.00;19.75;;;;;-142.59;100.00;56100.38;5093461;27;49754;-70
2022/06/18 05:47:20;;;;;;;;;21.00;19.75;;;;;-142.59;100.00;56100.38;5093552;27;49633;-69
2022/06/18 05:49:45;;;;;;;;;19.75;19.75;;;;;-142.59;100.00;56100.38;5088133;27;49662;-69
2022/06/18 05:52:11;;;;;;;;;22.00;21.50;;;;;-142.59;100.00;56100.38;5072927;27;49835;-70
2022/06/18 05:54:37;;;;;;;;;22.50;21.25;;;;;-142.59;100.00;56100.38;5072983;28;49938;-69
2022/06/18 05:57:03;;;;;;;;;20.75;19.75;;;;;-142.59;100.00;56100.38;5073850;28;50217;-69
2022/06/18 05:59:29;;;;;;;;;18.25;18.25;;;;;-142.59;100.00;56100.38;5079043;27;49965;-68
2022/06/18 06:01:56;;;;;;;;;17.75;17.75;;;;;-142.59;100.00;56100.38;5097156;27;49711;-68
2022/06/18 06:04:23;;;;;;;;;19.00;17.50;;;;;-142.59;100.00;56100.38;5097148;27;49686;-71
2022/06/18 06:06:49;;;;;;;;;19.00;17.00;;;;;-142.59;100.00;56100.38;5091183;27;49878;-70
2022/06/18 06:11:28;;;;;;;;;19.00;19.00;;;;;-142.59;100.00;56100.38;5081266;27;49792;-70
2022/06/18 06:12:00;;;;;;;;;16.75;15.75;;;;;-142.59;100.00;56100.38;5068820;27;49883;-68
2022/06/18 06:14:25;;;;;;;;;19.75;18.25;;;;;-142.59;100.00;56100.38;5077935;27;49852;-72
2022/06/18 06:16:50;;;;;;;;;19.50;19.25;;;;;-142.59;100.00;56100.38;5076524;27;49734;-69
2022/06/18 06:19:16;;;;;;;;;17.50;17.25;;;;;-142.59;100.00;56100.38;5078788;27;50097;-69
2022/06/18 06:21:41;;;;;;;;;16.25;16.25;;;;;-142.59;100.00;56100.38;5088178;27;49695;-71
2022/06/18 06:24:06;;;;;;;;;16.50;16.50;;;;;-142.59;100.00;56100.38;5081968;27;49767;-70
2022/06/18 06:26:35;;;;;;;;;17.25;16.25;;;;;-142.59;100.00;56100.38;5096381;27;49805;-71
2022/06/18 06:29:00;;;;;;;;;20.75;20.50;;;;;-142.59;100.00;56100.38;5078353;27;49620;-69
2022/06/18 06:31:26;;;;;;;;;18.75;18.75;;;;;-142.59;100.00;56100.38;5096446;27;49753;-70
2022/06/18 06:33:51;;;;;;;;;22.00;20.75;;;;;-142.59;100.00;56100.38;5080056;27;49892;-70
2022/06/18 06:36:17;;;;;;;;;18.00;18.00;;;;;-142.59;100.00;56100.38;5076004;28;49717;-70
2022/06/18 06:38:42;;;;;;;;;16.25;16.25;;;;;-142.59;100.00;56100.38;5075920;28;49821;-70
2022/06/18 06:41:19;;;;;;;;;23.25;18.00;;;;;-142.59;100.00;56100.38;5075770;27;50165;-71
2022/06/18 06:43:45;;;;;;;;;20.50;18.50;;;;;-142.59;100.00;56100.38;5077716;27;49862;-70
2022/06/18 06:46:12;;;;;;;;;19.75;18.75;;;;;-142.59;100.00;56100.38;5081043;27;50175;-71
2022/06/18 06:48:38;;;;;;;;;18.50;12.50;;;;;-142.59;100.00;56100.38;5075823;27;49556;-71
2022/06/18 06:51:10;;;;;;;;;18.25;18.00;;;;;-142.59;100.00;56100.38;5075823;28;49745;-69
2022/06/18 06:53:36;;;;;;;;;17.50;17.00;;;;;-142.59;100.00;56100.38;5074494;27;49645;-70
2022/06/18 06:58:45;;;;;;;;;18.00;15.75;;;;;-142.59;100.00;56100.38;5075758;27;49855;-71
2022/06/18 07:01:10;;;;;;;;;22.00;19.00;;;;;-142.59;100.00;56100.38;5093180;27;49787;-69
2022/06/18 07:03:36;;;;;;;;;15.75;15.75;;;;;-142.59;100.00;56100.38;5091222;27;49953;-71
2022/06/18 07:06:03;;;;;;;;;15.75;15.75;;;;;-142.59;100.00;56100.38;5075391;27;50851;-70
2022/06/18 07:08:29;;;;;;;;;18.25;17.00;;;;;-142.59;100.00;56100.38;5074288;27;49518;-71
2022/06/18 07:10:54;;;;;;;;;19.50;19.25;;;;;-142.59;100.00;56100.38;5083260;27;49868;-71
2022/06/18 07:13:20;;;;;;;;;17.00;15.75;;;;;-142.59;100.00;56100.38;5094459;27;49682;-70
2022/06/18 07:15:47;;;;;;;;;18.25;17.00;;;;;-142.59;100.00;56100.38;5081973;27;50155;-70
2022/06/18 07:18:24;;;;;;;;;19.25;16.75;;;;;-142.59;100.00;56100.38;5075542;27;49838;-82
2022/06/18 07:20:49;;;;;;;;;17.75;15.50;;;;;-142.59;100.00;56100.38;5075706;27;49885;-72
2022/06/18 07:23:15;;;;;;;;;19.50;19.50;;;;;-142.59;100.00;56100.38;5075963;28;49918;-70
2022/06/18 07:25:41;;;;;;;;;18.25;17.50;;;;;-142.59;100.00;56100.38;5087141;27;49905;-69
2022/06/18 07:28:06;;;;;;;;;19.50;18.50;;;;;-142.59;100.00;56100.38;5095752;27;49859;-71
2022/06/18 07:30:33;;;;;;;;;15.25;15.00;;;;;-142.59;100.00;56100.38;5095821;27;49858;-69
2022/06/18 07:32:58;;;;;;;;;35.50;33.00;;;;;-142.59;100.00;56100.38;5077099;27;49830;-70
2022/06/18 07:35:27;;;;;;;;;26.00;22.00;;;;;-142.59;100.00;56100.38;5075139;27;49819;-69
2022/06/18 07:37:54;;;;;;;;;58.75;45.75;;;;;-142.59;100.00;56100.38;5075093;27;49791;-70
2022/06/18 07:40:20;;;;;;;;;24.25;23.00;;;;;-142.59;100.00;56100.38;5074933;27;49941;-71
2022/06/18 07:42:48;;;;;;;;;23.75;20.25;;;;;-142.59;100.00;56100.38;5074147;27;50021;-70
2022/06/18 07:45:17;;;;;;;;;50.00;43.00;;;;;-142.59;100.00;56100.38;5074487;27;50994;-73
2022/06/18 07:47:42;;;;;;;;;27.25;25.75;;;;;-142.59;100.00;56100.38;5074335;27;49784;-71
2022/06/18 07:50:08;;;;;;;;;17.50;17.00;;;;;-142.59;100.00;56100.38;5074578;27;49869;-69
2022/06/18 07:52:33;;;;;;;;;22.00;17.75;;;;;-142.59;100.00;56100.38;5074455;28;49696;-69
2022/06/18 07:54:59;;;;;;;;;41.50;35.25;;;;;-142.59;100.00;56100.38;5074536;27;50362;-70
2022/06/18 07:57:24;;;;;;;;;28.25;27.75;;;;;-142.59;100.00;56100.38;5074864;27;49811;-70
2022/06/18 07:59:49;;;;;;;;;22.00;20.75;;;;;-142.59;100.00;56100.38;5074855;27;49661;-70
2022/06/18 08:02:16;;;;;;;;;22.75;21.50;;;;;-142.59;100.00;56100.38;5075008;28;49725;-72
2022/06/18 08:04:41;;;;;;;;;22.25;19.50;;;;;-142.59;100.00;56100.38;5074525;28;50580;-72
2022/06/18 08:07:06;;;;;;;;;22.75;22.75;;;;;-142.59;100.00;56100.38;5074453;27;49811;-71
2022/06/18 08:09:33;;;;;;;;;21.75;21.75;;;;;-142.59;100.00;56100.38;5078023;27;50363;-72
2022/06/18 08:11:59;;;;;;;;;23.25;21.50;;;;;-142.59;100.00;56100.38;5075784;27;50014;-71
2022/06/18 08:14:25;;;;;;;;;24.00;23.50;;;;;-142.59;100.00;56100.38;5077180;27;50834;-71
2022/06/18 08:16:50;;;;;;;;;18.00;17.50;;;;;-142.59;100.00;56100.38;5064659;27;49839;-72
2022/06/18 08:19:15;;;;;;;;;24.00;24.00;;;;;-142.59;100.00;56100.38;5058736;27;49780;-71
2022/06/18 08:21:43;;;;;;;;;19.75;19.25;;;;;-142.59;100.00;56100.38;5094888;27;49871;-70
2022/06/18 08:24:14;;;;;;;;;18.50;17.00;;;;;-142.59;100.00;56100.38;5064913;28;52166;-71
2022/06/18 08:26:41;;;;;;;;;16.50;15.50;;;;;-142.59;100.00;56100.38;5074326;28;50055;-72
2022/06/18 08:29:10;;;;;;;;;23.00;21.25;;;;;-142.59;100.00;56100.38;5074426;28;49828;-72
2022/06/18 08:31:36;;;;;;;;;17.75;17.50;;;;;-142.59;100.00;56100.38;5074546;28;49837;-80
2022/06/18 08:34:01;;;;;;;;;15.50;14.50;;;;;-142.59;100.00;56100.38;5074048;27;49628;-79
2022/06/18 08:36:27;;;;;;;;;13.50;13.50;;;;;-142.59;100.00;56100.38;5066672;27;49561;-73
2022/06/18 08:38:54;;;;;;;;;13.25;12.25;;;;;-142.59;100.00;56100.38;5053080;28;49862;-77
2022/06/18 08:41:38;;;;;;;;;12.00;12.00;;;;;-142.59;100.00;56100.38;5051940;28;49920;-80
2022/06/18 08:44:36;;;;;;;;;14.00;14.00;;;;;-142.59;100.00;56100.38;5053725;28;49775;-76
2022/06/18 08:47:10;;;;;;;;;14.00;13.50;;;;;-142.59;100.00;56100.38;5053855;28;49723;-77
2022/06/18 08:50:01;;;;;;;;;14.75;14.75;;;;;-142.59;100.00;56100.38;5053594;28;49917;-73
2022/06/18 08:52:35;;;;;;;;;16.25;13.50;;;;;-142.59;100.00;56100.38;5053679;28;49940;-72
2022/06/18 08:55:31;;;;;;;;;16.00;16.00;;;;;-142.59;100.00;56100.38;5053278;28;49723;-78
2022/06/18 08:58:06;;;;;;;;;15.25;15.25;;;;;-142.59;100.00;56100.38;5053713;28;49710;-77
2022/06/18 09:00:34;;;;;;;;;13.25;13.25;;;;;-142.59;100.00;56100.38;5053772;28;49737;-78
2022/06/18 09:03:12;;;;;;;;;14.50;14.50;;;;;-142.59;100.00;56100.38;5053933;28;50023;-75
2022/06/18 09:06:12;;;;;;;;;14.00;13.50;;;;;-142.59;100.00;56100.38;5053455;28;50736;-72
2022/06/18 09:08:50;;;;;;;;;15.00;13.25;;;;;-142.59;100.00;56100.38;5053460;28;49677;-76
2022/06/18 09:11:27;;;;;;;;;17.50;16.00;;;;;-142.59;100.00;56100.38;5035230;28;49729;-72
2022/06/18 09:13:54;;;;;;;;;13.50;12.00;;;;;-142.59;100.00;56100.38;5052045;28;50102;-77
2022/06/18 09:16:27;;;;;;;;;14.50;14.50;;;;;-142.59;100.00;56100.38;5035175;28;51956;-72
2022/06/18 09:18:55;;;;;;;;;15.00;13.50;;;;;-142.59;100.00;56100.38;5053157;28;49825;-77
2022/06/18 09:21:28;;;;;;;;;13.25;13.25;;;;;-142.59;100.00;56100.38;5052067;28;49851;-79
2022/06/18 09:23:59;;;;;;;;;16.00;16.00;;;;;-142.59;100.00;56100.38;5035569;28;50026;-78
2022/06/18 09:26:40;;;;;;;;;11.25;11.25;;;;;-142.59;100.00;56100.38;5052869;28;49886;-79
2022/06/18 09:29:10;;;;;;;;;11.25;11.25;;;;;-142.59;100.00;56100.38;5053238;28;49727;-80
2022/06/18 09:31:44;;;;;;;;;13.75;12.50;;;;;-142.59;100.00;56100.38;5052299;28;49913;-75
2022/06/18 09:34:46;;;;;;;;;14.00;13.00;;;;;-142.59;100.00;56100.38;5035401;28;49731;-76
2022/06/18 09:37:35;;;;;;;;;16.25;14.00;;;;;-142.59;100.00;56100.38;5039492;28;49784;-73
2022/06/18 09:40:03;;;;;;;;;11.25;11.25;;;;;-142.59;100.00;56100.38;5052956;28;49677;-72
2022/06/18 09:42:41;;;;;;;;;14.00;14.00;;;;;-142.59;100.00;56100.38;5034927;28;49940;-76
2022/06/18 09:45:18;;;;;;;;;13.50;13.50;;;;;-142.59;100.00;56100.38;5035398;28;49954;-72
2022/06/18 09:47:47;;;;;;;;;11.75;11.25;;;;;-142.59;100.00;56100.38;5034664;28;51975;-73
2022/06/18 09:50:25;;;;;;;;;14.50;13.00;;;;;-142.59;100.00;56100.38;5053057;28;49781;-79
2022/06/18 09:53:02;;;;;;;;;14.50;13.50;;;;;-142.59;100.00;56100.38;5052583;28;49863;-78
2022/06/18 09:55:41;;;;;;;;;12.75;11.25;;;;;-142.59;100.00;56100.38;5053004;28;49748;-72
2022/06/18 09:58:15;;;;;;;;;14.50;13.75;;;;;-142.59;100.00;56100.38;5052817;28;50703;-72
2022/06/18 10:00:42;;;;;;;;;14.25;13.25;;;;;-142.59;100.00;56100.38;5052769;28;49614;-75
2022/06/18 10:09:28;;;;;;;;;12.50;11.25;;;;;-142.59;100.00;56100.38;5024452;28;49713;-79
2022/06/18 10:11:57;;;;;;;;;11.25;9.75;;;;;-142.59;100.00;56100.38;5034262;28;49654;-76
2022/06/18 10:14:23;;;;;;;;;9.25;9.25;;;;;-142.59;100.00;56100.38;5034504;28;49589;-74
2022/06/18 10:17:14;;;;;;;;;13.00;12.00;;;;;-142.59;100.00;56100.38;5052930;28;50001;-74
2022/06/18 10:19:50;;;;;;;;;9.75;9.75;;;;;-142.59;100.00;56100.38;5052378;28;50311;-73
2022/06/18 10:22:57;;;;;;;;;9.25;9.25;;;;;-142.59;100.00;56100.38;5052372;28;49609;-76
2022/06/18 10:25:23;;;;;;;;;10.50;10.50;;;;;-142.59;100.00;56100.38;5024543;28;49825;-76
2022/06/18 10:27:53;;;;;;;;;14.25;12.00;;;;;-142.59;100.00;56100.38;5052974;28;49945;-77
2022/06/18 10:30:37;;;;;;;;;14.25;11.75;;;;;-142.59;100.00;56100.38;5034290;28;52172;-72
2022/06/18 10:33:14;;;;;;;;;10.25;10.25;;;;;-142.59;100.00;56100.38;5052485;28;49827;-75
2022/06/18 10:35:52;;;;;;;;;9.25;9.25;;;;;-142.59;100.00;56100.38;5034340;28;49761;-75
2022/06/18 10:38:31;;;;;;;;;12.00;10.00;;;;;-142.59;100.00;56100.38;5052716;28;49788;-72
2022/06/18 10:41:09;;;;;;;;;12.25;11.00;;;;;-142.59;100.00;56100.38;5051948;28;49662;-73
2022/06/18 10:44:01;;;;;;;;;12.50;9.50;;;;;-142.59;100.00;56100.38;5035908;28;49679;-75
2022/06/18 10:46:26;;;;;;;;;10.50;9.00;;;;;-142.59;100.00;56100.38;5055783;28;49798;-78
2022/06/18 10:48:56;;;;;;;;;11.00;9.00;;;;;-142.59;100.00;56100.38;5055700;28;49777;-77
2022/06/18 10:51:24;;;;;;;;;13.00;13.00;;;;;-142.59;100.00;56100.38;5055402;28;49720;-73
2022/06/18 10:53:53;;;;;;;;;11.00;11.00;;;;;-142.59;100.00;56100.38;5055439;28;49452;-76
2022/06/18 10:56:31;;;;;;;;;14.75;14.75;;;;;-142.59;100.00;56100.38;5037444;28;49927;-73
2022/06/18 10:59:00;;;;;;;;;12.75;12.75;;;;;-142.59;100.00;56100.38;5055744;28;49767;-73
2022/06/18 11:01:40;;;;;;;;;18.25;14.75;;;;;-142.59;100.00;56100.38;5055543;28;50727;-73
2022/06/18 11:04:17;;;;;;;;;9.75;9.25;;;;;-142.59;100.00;56100.38;5055299;28;49743;-73
2022/06/18 11:06:48;;;;;;;;;12.50;11.50;;;;;-142.59;100.00;56100.38;5055387;28;49690;-73
2022/06/18 11:09:22;;;;;;;;;12.75;12.75;;;;;-142.59;100.00;56100.38;5055319;28;49752;-73
2022/06/18 11:11:54;;;;;;;;;13.50;10.25;;;;;-142.59;100.00;56100.38;5055277;28;50938;-73
2022/06/18 11:14:20;;;;;;;;;14.50;12.75;;;;;-142.59;100.00;56100.38;5055072;28;49895;-73
2022/06/18 11:16:48;;;;;;;;;10.75;10.75;;;;;-142.59;100.00;56100.38;5055273;28;49728;-73
2022/06/18 11:19:29;;;;;;;;;13.75;13.00;;;;;-142.59;100.00;56100.38;5060361;28;49962;-80
2022/06/18 11:21:55;;;;;;;;;46.75;39.75;;;;;-142.59;100.00;56100.38;5083811;27;51016;-74